createdAt,value
2018-08-17T00:00:45.501Z,20.50
2018-08-17T00:03:14.537Z,20.50
2018-08-17T00:05:43.626Z,20.50
2018-08-17T00:08:12.942Z,20.40
2018-08-17T00:10:42.090Z,20.30
2018-08-17T00:13:11.176Z,20.40
2018-08-17T00:15:40.559Z,20.30
2018-08-17T00:18:09.660Z,20.20
2018-08-17T00:20:38.771Z,20.20
2018-08-17T00:23:07.846Z,20.20
2018-08-17T00:25:36.960Z,20.20
2018-08-17T00:28:06.110Z,20.20
2018-08-17T00:30:35.167Z,20.20
2018-08-17T00:33:04.382Z,20.20
2018-08-17T00:35:33.428Z,20.10
2018-08-17T00:38:02.510Z,20.10
2018-08-17T00:40:31.521Z,20.00
2018-08-17T00:43:00.529Z,19.90
2018-08-17T00:45:29.837Z,19.80
2018-08-17T00:47:58.939Z,19.80
2018-08-17T00:50:28.251Z,19.70
2018-08-17T00:52:57.434Z,19.70
2018-08-17T00:55:26.504Z,19.70
2018-08-17T00:57:55.516Z,19.60
2018-08-17T01:00:24.617Z,19.60
2018-08-17T01:02:53.697Z,19.50
2018-08-17T01:05:23.647Z,19.50
2018-08-17T01:07:52.719Z,19.50
2018-08-17T01:10:21.734Z,19.50
2018-08-17T01:12:50.776Z,19.60
2018-08-17T01:15:20.885Z,19.60
2018-08-17T01:17:49.902Z,19.60
2018-08-17T01:20:19.049Z,19.60
2018-08-17T01:22:48.355Z,19.50
2018-08-17T01:25:17.425Z,19.50
2018-08-17T01:27:46.562Z,19.50
2018-08-17T01:30:15.629Z,19.40
2018-08-17T01:32:44.653Z,19.30
2018-08-17T01:35:13.722Z,19.30
2018-08-17T01:37:42.761Z,19.30
2018-08-17T01:40:11.814Z,19.30
2018-08-17T01:42:40.841Z,19.20
2018-08-17T01:45:09.962Z,19.10
2018-08-17T01:47:39.043Z,19.10
2018-08-17T01:50:08.343Z,19.00
2018-08-17T01:52:37.517Z,19.00
2018-08-17T01:55:08.200Z,18.90
2018-08-17T01:57:37.370Z,18.80
2018-08-17T02:00:08.366Z,18.90
2018-08-17T02:02:38.238Z,18.70
2018-08-17T02:05:07.738Z,18.70
2018-08-17T02:07:36.855Z,18.70
2018-08-17T02:10:07.984Z,18.80
2018-08-17T02:12:37.221Z,18.70
2018-08-17T02:15:06.264Z,18.70
2018-08-17T02:17:35.332Z,18.70
2018-08-17T02:20:04.853Z,18.50
2018-08-17T02:22:33.937Z,18.50
2018-08-17T02:25:03.025Z,18.40
2018-08-17T02:27:32.150Z,18.40
2018-08-17T02:30:01.214Z,18.40
2018-08-17T02:32:30.281Z,18.40
2018-08-17T02:34:59.366Z,18.30
2018-08-17T02:37:28.402Z,18.30
2018-08-17T02:39:57.433Z,18.30
2018-08-17T02:42:26.556Z,18.20
2018-08-17T02:44:55.664Z,18.20
2018-08-17T02:47:24.708Z,18.30
2018-08-17T02:49:53.755Z,18.40
2018-08-17T02:52:22.770Z,18.50
2018-08-17T02:54:51.899Z,18.60
2018-08-17T02:57:21.005Z,18.70
2018-08-17T02:59:49.588Z,18.80
2018-08-17T03:02:18.106Z,18.70
2018-08-17T03:04:47.168Z,18.70
2018-08-17T03:07:16.229Z,18.60
2018-08-17T03:09:45.303Z,18.50
2018-08-17T03:12:13.814Z,18.50
2018-08-17T03:14:42.870Z,18.30
2018-08-17T03:17:11.955Z,18.40
2018-08-17T03:19:41.013Z,18.50
2018-08-17T03:22:10.130Z,18.70
2018-08-17T03:24:39.510Z,18.60
2018-08-17T03:27:08.603Z,18.50
2018-08-17T03:29:37.674Z,18.40
2018-08-17T03:32:06.797Z,18.40
2018-08-17T03:34:35.895Z,18.50
2018-08-17T03:37:05.203Z,18.60
2018-08-17T03:39:34.214Z,18.60
2018-08-17T03:42:03.294Z,18.60
2018-08-17T03:44:32.338Z,18.60
2018-08-17T03:47:01.401Z,18.70
2018-08-17T03:49:30.459Z,18.70
2018-08-17T03:51:59.562Z,18.70
2018-08-17T03:54:28.573Z,18.60
2018-08-17T03:56:57.662Z,18.60
2018-08-17T03:59:26.704Z,18.60
2018-08-17T04:01:55.775Z,18.60
2018-08-17T04:04:24.894Z,18.50
2018-08-17T04:06:53.991Z,18.40
2018-08-17T04:09:23.018Z,18.30
2018-08-17T04:11:52.112Z,18.30
2018-08-17T04:14:21.206Z,18.30
2018-08-17T04:16:50.226Z,18.30
2018-08-17T04:19:19.285Z,18.30
2018-08-17T04:21:48.296Z,18.30
2018-08-17T04:24:17.420Z,18.40
2018-08-17T04:26:46.444Z,18.50
2018-08-17T04:29:15.496Z,18.60
2018-08-17T04:31:44.609Z,18.60
2018-08-17T04:34:13.816Z,18.60
2018-08-17T04:36:42.909Z,18.60
2018-08-17T04:39:11.953Z,18.60
2018-08-17T04:41:41.125Z,18.60
2018-08-17T04:44:10.250Z,18.70
2018-08-17T04:46:39.394Z,18.80
2018-08-17T04:49:08.585Z,18.80
2018-08-17T04:51:37.767Z,18.80
2018-08-17T04:54:06.989Z,18.80
2018-08-17T04:56:35.977Z,18.90
2018-08-17T04:59:05.021Z,19.00
2018-08-17T05:01:34.146Z,19.10
2018-08-17T05:04:03.206Z,19.10
2018-08-17T05:06:32.317Z,19.10
2018-08-17T05:09:01.413Z,19.10
2018-08-17T05:11:30.493Z,19.20
2018-08-17T05:13:59.550Z,19.30
2018-08-17T05:16:28.585Z,19.30
2018-08-17T05:18:57.641Z,19.40
2018-08-17T05:21:26.755Z,19.50
2018-08-17T05:23:55.785Z,19.50
2018-08-17T05:26:24.857Z,19.50
2018-08-17T05:28:53.922Z,19.30
2018-08-17T05:31:22.977Z,19.30
2018-08-17T05:33:52.152Z,19.30
2018-08-17T05:36:21.193Z,19.40
2018-08-17T05:38:50.206Z,19.50
2018-08-17T05:41:19.282Z,19.60
2018-08-17T05:43:48.289Z,19.60
2018-08-17T05:46:17.494Z,19.60
2018-08-17T05:48:46.514Z,19.60
2018-08-17T05:51:15.508Z,19.60
2018-08-17T05:53:44.552Z,19.30
2018-08-17T05:56:13.613Z,19.00
2018-08-17T05:58:42.723Z,18.90
2018-08-17T06:01:11.858Z,18.90
2018-08-17T06:03:41.161Z,19.00
2018-08-17T06:06:10.478Z,19.10
2018-08-17T06:08:39.590Z,19.10
2018-08-17T06:11:08.926Z,19.10
2018-08-17T06:13:37.880Z,19.20
2018-08-17T06:16:07.248Z,19.20
2018-08-17T06:18:36.430Z,19.20
2018-08-17T06:21:05.529Z,19.40
2018-08-17T06:23:34.591Z,19.70
2018-08-17T06:26:03.688Z,20.00
2018-08-17T06:28:32.757Z,20.20
2018-08-17T06:31:02.385Z,20.40
2018-08-17T06:33:31.479Z,20.40
2018-08-17T06:36:00.626Z,20.30
2018-08-17T06:38:29.705Z,20.20
2018-08-17T06:40:58.753Z,20.10
2018-08-17T06:43:27.782Z,19.90
2018-08-17T06:45:56.873Z,19.80
2018-08-17T06:48:25.953Z,19.60
2018-08-17T06:50:55.146Z,19.50
2018-08-17T06:53:24.106Z,19.50
2018-08-17T06:55:53.140Z,19.40
2018-08-17T06:58:22.197Z,19.40
2018-08-17T07:00:51.265Z,19.40
2018-08-17T07:03:20.335Z,19.40
2018-08-17T07:05:49.415Z,19.40
2018-08-17T07:08:18.428Z,19.50
2018-08-17T07:10:47.501Z,19.70
2018-08-17T07:13:16.535Z,20.00
2018-08-17T07:15:45.604Z,20.20
2018-08-17T07:18:14.617Z,20.50
2018-08-17T07:20:43.676Z,20.90
2018-08-17T07:23:12.729Z,21.60
2018-08-17T07:25:41.776Z,22.30
2018-08-17T07:28:10.869Z,22.50
2018-08-17T07:30:40.046Z,22.80
2018-08-17T07:33:09.157Z,23.20
2018-08-17T07:35:38.245Z,23.70
2018-08-17T07:38:07.348Z,23.70
2018-08-17T07:40:36.642Z,24.00
2018-08-17T07:43:05.694Z,24.40
2018-08-17T07:45:34.715Z,26.20
2018-08-17T07:48:03.937Z,27.60
2018-08-17T07:50:32.839Z,28.00
2018-08-17T07:53:01.884Z,27.50
2018-08-17T07:55:30.916Z,26.40
2018-08-17T07:57:59.941Z,25.50
2018-08-17T08:00:28.969Z,24.80
2018-08-17T08:02:58.016Z,23.90
2018-08-17T08:05:27.130Z,23.10
2018-08-17T08:07:56.157Z,22.50
2018-08-17T08:10:25.228Z,22.10
2018-08-17T08:12:54.309Z,21.90
2018-08-17T08:15:23.399Z,21.70
2018-08-17T08:17:52.418Z,21.60
2018-08-17T08:20:34.056Z,21.70
2018-08-17T08:23:14.287Z,21.80
2018-08-17T08:25:43.321Z,21.90
2018-08-17T08:28:12.386Z,21.80
2018-08-17T08:30:41.653Z,21.40
2018-08-17T08:33:10.777Z,20.90
2018-08-17T08:35:39.899Z,20.60
2018-08-17T08:38:09.260Z,20.50
2018-08-17T08:40:38.331Z,20.50
2018-08-17T08:43:07.575Z,20.40
2018-08-17T08:45:36.917Z,20.20
2018-08-17T08:48:06.705Z,20.10
2018-08-17T08:50:35.894Z,20.00
2018-08-17T08:53:05.022Z,20.00
2018-08-17T08:55:34.088Z,20.00
2018-08-17T08:58:03.154Z,19.90
2018-08-17T09:00:32.200Z,19.90
2018-08-17T09:03:01.246Z,20.30
2018-08-17T09:05:30.299Z,21.00
2018-08-17T09:07:59.343Z,22.40
2018-08-17T09:10:28.488Z,24.10
2018-08-17T09:12:57.514Z,24.50
2018-08-17T09:15:26.646Z,25.70
2018-08-17T09:17:55.753Z,26.80
2018-08-17T09:20:24.871Z,27.00
2018-08-17T09:22:53.849Z,25.50
2018-08-17T09:25:22.969Z,24.60
2018-08-17T09:27:51.970Z,23.70
2018-08-17T09:30:21.026Z,23.50
2018-08-17T09:32:50.048Z,23.50
2018-08-17T09:35:19.078Z,23.60
2018-08-17T09:37:48.099Z,23.90
2018-08-17T09:40:17.173Z,24.00
2018-08-17T09:42:46.197Z,24.50
2018-08-17T09:45:15.266Z,25.20
2018-08-17T09:47:44.304Z,26.20
2018-08-17T09:50:14.882Z,26.40
2018-08-17T09:52:44.033Z,25.90
2018-08-17T09:55:13.089Z,25.40
2018-08-17T09:57:42.161Z,25.00
2018-08-17T10:00:11.599Z,24.90
2018-08-17T10:02:45.786Z,25.20
2018-08-17T10:05:20.179Z,25.30
2018-08-17T10:07:54.601Z,25.40
2018-08-17T10:10:24.809Z,25.60
2018-08-17T10:12:53.949Z,25.20
2018-08-17T10:15:23.972Z,24.40
2018-08-17T10:17:53.001Z,25.10
2018-08-17T10:20:24.805Z,26.20
2018-08-17T10:22:54.542Z,27.30
2018-08-17T10:25:24.750Z,27.60
2018-08-17T10:27:57.763Z,26.90
2018-08-17T10:30:26.836Z,25.80
2018-08-17T10:32:57.173Z,25.20
2018-08-17T10:35:27.621Z,24.70
2018-08-17T10:37:59.868Z,24.30
2018-08-17T10:40:28.989Z,23.90
2018-08-17T10:42:59.440Z,23.50
2018-08-17T10:45:28.723Z,23.20
2018-08-17T10:47:58.286Z,23.00
2018-08-17T10:50:29.353Z,23.10
2018-08-17T10:52:59.689Z,23.00
2018-08-17T10:55:40.083Z,22.60
2018-08-17T10:58:11.533Z,22.20
2018-08-17T11:00:40.632Z,21.90
2018-08-17T11:03:09.777Z,21.90
2018-08-17T11:05:38.927Z,22.00
2018-08-17T11:08:08.040Z,22.10
2018-08-17T11:10:37.086Z,22.10
2018-08-17T11:13:06.236Z,22.30
2018-08-17T11:15:35.255Z,22.50
2018-08-17T11:18:04.314Z,22.60
2018-08-17T11:20:33.353Z,22.70
2018-08-17T11:23:02.367Z,22.80
2018-08-17T11:25:31.423Z,22.90
2018-08-17T11:28:00.425Z,23.10
2018-08-17T11:30:29.458Z,23.10
2018-08-17T11:32:58.522Z,23.20
2018-08-17T11:35:27.553Z,23.30
2018-08-17T11:37:56.596Z,23.60
2018-08-17T11:40:25.678Z,23.90
2018-08-17T11:42:54.701Z,24.00
2018-08-17T11:45:24.961Z,23.90
2018-08-17T11:47:54.744Z,23.90
2018-08-17T11:50:24.813Z,23.90
2018-08-17T11:52:56.725Z,23.60
2018-08-17T11:55:27.065Z,23.40
2018-08-17T11:57:56.365Z,23.40
2018-08-17T12:00:25.558Z,23.30
2018-08-17T12:02:54.655Z,23.30
2018-08-17T12:05:23.730Z,23.30
2018-08-17T12:07:52.729Z,23.30
2018-08-17T12:10:21.788Z,23.50
2018-08-17T12:12:50.809Z,23.60
2018-08-17T12:15:19.829Z,23.60
2018-08-17T12:17:48.829Z,23.60
2018-08-17T12:20:17.851Z,23.40
2018-08-17T12:22:46.859Z,23.20
2018-08-17T12:25:15.933Z,23.10
2018-08-17T12:27:53.007Z,22.90
2018-08-17T12:30:22.029Z,22.70
2018-08-17T12:32:51.038Z,22.60
2018-08-17T12:35:20.054Z,22.30
2018-08-17T12:37:57.251Z,22.20
2018-08-17T12:40:30.553Z,22.20
2018-08-17T12:42:59.735Z,22.30
2018-08-17T12:45:28.815Z,22.20
2018-08-17T12:47:57.836Z,22.10
2018-08-17T12:50:26.887Z,22.20
2018-08-17T12:52:56.009Z,22.00
2018-08-17T12:55:25.084Z,22.10
2018-08-17T12:57:54.113Z,22.00
2018-08-17T13:00:23.269Z,22.00
2018-08-17T13:02:52.745Z,21.90
2018-08-17T13:05:21.794Z,21.90
2018-08-17T13:07:50.799Z,22.00
2018-08-17T13:10:19.856Z,22.00
2018-08-17T13:12:55.137Z,22.00
2018-08-17T13:15:24.733Z,22.00
2018-08-17T13:17:53.754Z,21.80
2018-08-17T13:20:22.820Z,21.80
2018-08-17T13:22:51.895Z,22.20
2018-08-17T13:25:20.969Z,22.70
2018-08-17T13:27:49.950Z,23.20
2018-08-17T13:30:19.013Z,23.50
2018-08-17T13:32:48.041Z,23.50
2018-08-17T13:35:17.051Z,23.50
2018-08-17T13:37:46.072Z,23.50
2018-08-17T13:40:15.113Z,23.40
2018-08-17T13:42:44.150Z,23.40
2018-08-17T13:45:13.213Z,23.70
2018-08-17T13:47:42.253Z,23.90
2018-08-17T13:50:11.337Z,23.80
2018-08-17T13:52:40.439Z,23.50
2018-08-17T13:55:09.497Z,23.50
2018-08-17T13:57:38.598Z,23.30
2018-08-17T14:00:09.356Z,23.20
2018-08-17T14:02:38.427Z,23.10
2018-08-17T14:05:08.543Z,23.20
2018-08-17T14:07:37.886Z,23.30
2018-08-17T14:10:08.042Z,23.30
2018-08-17T14:12:37.709Z,23.30
2018-08-17T14:15:07.684Z,23.30
2018-08-17T14:17:37.230Z,23.30
2018-08-17T14:20:09.143Z,23.60
2018-08-17T14:22:38.291Z,23.80
2018-08-17T14:25:08.417Z,24.10
2018-08-17T14:27:37.474Z,24.30
2018-08-17T14:30:10.986Z,24.40
2018-08-17T14:32:40.213Z,24.20
2018-08-17T14:35:09.479Z,24.20
2018-08-17T14:37:38.505Z,24.40
2018-08-17T14:40:08.220Z,24.50
2018-08-17T14:42:37.265Z,24.70
2018-08-17T14:45:07.835Z,24.70
2018-08-17T14:47:37.164Z,24.70
2018-08-17T14:50:08.374Z,24.50
2018-08-17T14:52:37.514Z,24.50
2018-08-17T14:55:07.599Z,24.50
2018-08-17T14:57:38.906Z,24.40
2018-08-17T15:00:10.027Z,24.30
2018-08-17T15:02:39.220Z,24.20
2018-08-17T15:05:09.777Z,24.00
2018-08-17T15:07:39.026Z,24.00
2018-08-17T15:10:09.512Z,24.00
2018-08-17T15:12:38.804Z,24.20
2018-08-17T15:15:08.307Z,24.10
2018-08-17T15:17:43.981Z,23.80
2018-08-17T15:20:13.442Z,23.50
2018-08-17T15:22:42.758Z,23.40
2018-08-17T15:25:11.828Z,23.40
2018-08-17T15:27:40.954Z,23.60
2018-08-17T15:30:11.158Z,23.70
2018-08-17T15:32:40.985Z,23.70
2018-08-17T15:35:10.730Z,23.60
2018-08-17T15:37:40.182Z,23.60
2018-08-17T15:40:10.975Z,23.80
2018-08-17T15:42:40.434Z,24.10
2018-08-17T15:45:10.126Z,24.30
2018-08-17T15:47:39.194Z,24.20
2018-08-17T15:50:13.936Z,24.10
2018-08-17T15:52:43.257Z,24.00
2018-08-17T15:55:12.465Z,23.90
2018-08-17T15:57:41.649Z,23.80
2018-08-17T16:00:14.850Z,23.50
2018-08-17T16:02:43.959Z,23.40
2018-08-17T16:05:13.094Z,23.30
2018-08-17T16:07:42.238Z,23.30
2018-08-17T16:10:13.774Z,23.40
2018-08-17T16:12:42.881Z,23.40
2018-08-17T16:15:12.879Z,23.60
2018-08-17T16:17:41.951Z,23.60
2018-08-17T16:20:12.018Z,23.60
2018-08-17T16:22:41.993Z,23.20
2018-08-17T16:25:11.906Z,22.90
2018-08-17T16:27:41.681Z,22.70
2018-08-17T16:30:13.466Z,22.60
2018-08-17T16:32:42.701Z,22.50
2018-08-17T16:35:12.414Z,22.40
2018-08-17T16:37:48.509Z,22.40
2018-08-17T16:40:17.559Z,22.40
2018-08-17T16:42:50.408Z,22.40
2018-08-17T16:45:37.951Z,22.40
2018-08-17T16:48:08.251Z,22.30
2018-08-17T16:50:37.392Z,22.20
2018-08-17T16:53:06.500Z,22.10
2018-08-17T16:55:35.530Z,22.00
2018-08-17T16:58:04.576Z,22.00
2018-08-17T17:00:33.923Z,21.90
2018-08-17T17:03:02.917Z,22.00
2018-08-17T17:05:31.980Z,22.00
2018-08-17T17:08:01.955Z,22.00
2018-08-17T17:10:36.030Z,22.10
2018-08-17T17:13:07.022Z,22.10
2018-08-17T17:15:36.814Z,22.10
2018-08-17T17:18:08.201Z,22.20
2018-08-17T17:20:39.022Z,22.10
2018-08-17T17:23:10.349Z,22.10
2018-08-17T17:25:39.486Z,22.10
2018-08-17T17:28:08.822Z,22.00
2018-08-17T17:30:43.901Z,22.00
2018-08-17T17:33:13.074Z,21.90
2018-08-17T17:35:43.013Z,21.80
2018-08-17T17:38:12.445Z,21.80
2018-08-17T17:47:06.897Z,21.80
2018-08-17T17:49:39.368Z,21.80
2018-08-17T17:52:08.402Z,21.60
2018-08-17T17:54:37.454Z,21.60
2018-08-17T17:57:09.381Z,21.60
2018-08-17T17:59:43.264Z,21.60
2018-08-17T18:02:12.288Z,21.50
2018-08-17T18:04:41.386Z,21.50
2018-08-17T18:12:38.136Z,21.40
2018-08-17T18:15:07.247Z,21.40
2018-08-17T18:17:36.334Z,21.30
2018-08-17T18:20:05.570Z,21.20
2018-08-17T18:22:34.632Z,21.20
2018-08-17T18:25:23.049Z,21.20
2018-08-17T18:27:52.085Z,21.10
2018-08-17T18:30:21.134Z,21.00
2018-08-17T18:32:50.429Z,21.00
2018-08-17T18:35:19.685Z,20.90
2018-08-17T18:37:48.643Z,20.80
2018-08-17T18:40:17.722Z,20.80
2018-08-17T18:42:46.719Z,20.80
2018-08-17T18:45:15.788Z,20.70
2018-08-17T18:47:45.118Z,20.60
2018-08-17T18:50:14.141Z,20.60
2018-08-17T18:52:43.351Z,20.60
2018-08-17T18:55:12.436Z,20.50
2018-08-17T18:57:41.481Z,20.40
2018-08-17T19:00:12.415Z,20.40
2018-08-17T19:02:41.742Z,20.30
2018-08-17T19:05:11.263Z,20.30
2018-08-17T19:07:40.349Z,20.30
2018-08-17T19:10:10.093Z,20.20
2018-08-17T19:12:39.206Z,20.20
2018-08-17T19:15:10.637Z,20.10
2018-08-17T19:17:39.938Z,20.10
2018-08-17T19:20:10.416Z,20.10
2018-08-17T19:22:41.449Z,20.00
2018-08-17T19:25:11.714Z,20.00
2018-08-17T19:27:41.452Z,19.90
2018-08-17T19:30:23.925Z,19.90
2018-08-17T19:32:54.358Z,19.80
2018-08-17T19:35:23.518Z,19.70
2018-08-17T19:37:53.032Z,19.60
2018-08-17T19:40:22.601Z,19.60
2018-08-17T19:42:51.650Z,19.50
2018-08-17T19:45:21.086Z,19.50
2018-08-17T19:47:50.429Z,19.40
2018-08-17T19:50:19.477Z,19.40
2018-08-17T19:52:48.779Z,19.30
2018-08-17T19:55:17.865Z,19.30
2018-08-17T19:57:46.866Z,19.20
2018-08-17T20:00:16.171Z,19.20
2018-08-17T20:02:45.315Z,19.20
2018-08-17T20:05:14.424Z,19.10
2018-08-17T20:07:43.588Z,19.00
2018-08-17T20:10:13.750Z,18.90
2018-08-17T20:12:43.400Z,18.90
2018-08-17T20:15:12.436Z,18.80
2018-08-17T20:17:48.270Z,18.80
2018-08-17T20:20:17.342Z,18.70
2018-08-17T20:22:46.549Z,18.70
2018-08-17T20:25:16.937Z,18.70
2018-08-17T20:27:46.627Z,18.60
2018-08-17T20:30:19.630Z,18.60
2018-08-17T20:32:48.829Z,18.40
2018-08-17T20:35:18.580Z,18.40
2018-08-17T20:37:49.962Z,18.40
2018-08-17T20:40:19.302Z,18.30
2018-08-17T20:42:48.756Z,18.20
2018-08-17T20:45:17.922Z,18.20
2018-08-17T20:47:47.078Z,18.10
2018-08-17T20:50:17.460Z,18.10
2018-08-17T20:52:52.287Z,18.00
2018-08-17T20:55:21.436Z,18.00
2018-08-17T20:57:52.746Z,17.90
2018-08-17T21:00:22.943Z,17.90
2018-08-17T21:02:52.015Z,17.80
2018-08-17T21:05:21.449Z,17.90
2018-08-17T21:07:50.836Z,17.80
2018-08-17T21:10:20.123Z,17.70
2018-08-17T21:12:49.564Z,17.70
2018-08-17T21:15:19.063Z,17.70
2018-08-17T21:17:48.672Z,17.60
2018-08-17T21:20:17.907Z,17.60
2018-08-17T21:22:47.068Z,17.60
2018-08-17T21:25:16.159Z,17.50
2018-08-17T21:27:45.290Z,17.50
2018-08-17T21:30:14.423Z,17.50
2018-08-17T21:32:44.691Z,17.50
2018-08-17T21:35:13.845Z,17.40
2018-08-17T21:37:42.979Z,17.40
2018-08-17T21:40:23.686Z,17.30
2018-08-17T21:42:52.757Z,17.40
2018-08-17T21:45:21.838Z,17.40
2018-08-17T21:47:50.946Z,17.40
2018-08-17T21:50:20.119Z,17.30
2018-08-17T21:52:49.260Z,17.30
2018-08-17T21:55:18.346Z,17.30
2018-08-17T21:57:47.478Z,17.20
2018-08-17T22:00:22.434Z,17.20
2018-08-17T22:02:51.497Z,17.20
2018-08-17T22:05:38.859Z,17.10
2018-08-17T22:08:07.884Z,17.10
2018-08-17T22:10:36.998Z,17.10
2018-08-17T22:13:11.328Z,17.00
2018-08-17T22:15:40.511Z,17.00
2018-08-17T22:18:09.588Z,16.80
2018-08-17T22:20:38.702Z,16.80
2018-08-17T22:23:07.959Z,16.80
2018-08-17T22:25:37.123Z,16.80
2018-08-17T22:28:06.347Z,16.80
2018-08-17T22:30:35.507Z,16.70
2018-08-17T22:33:04.686Z,16.60
2018-08-17T22:35:33.999Z,16.60
2018-08-17T22:38:02.936Z,16.50
2018-08-17T22:40:32.016Z,16.50
2018-08-17T22:43:01.422Z,16.40
2018-08-17T22:45:30.608Z,16.30
2018-08-17T22:47:59.770Z,16.30
2018-08-17T22:50:28.853Z,16.30
2018-08-17T22:52:57.967Z,16.30
2018-08-17T22:55:26.998Z,16.30
2018-08-17T22:57:56.090Z,16.30
2018-08-17T23:00:27.480Z,16.30
2018-08-17T23:02:58.955Z,16.30
2018-08-17T23:05:29.420Z,16.30
2018-08-17T23:07:58.591Z,16.40
2018-08-17T23:10:28.802Z,16.30
2018-08-17T23:12:58.292Z,16.40
2018-08-17T23:15:27.497Z,16.30
2018-08-17T23:17:57.780Z,16.30
2018-08-17T23:20:32.249Z,16.30
2018-08-17T23:23:02.209Z,16.30
2018-08-17T23:25:31.525Z,16.30
2018-08-17T23:28:00.738Z,16.20
2018-08-17T23:30:29.890Z,16.20
2018-08-17T23:32:59.145Z,16.30
2018-08-17T23:35:28.326Z,16.20
2018-08-17T23:37:57.578Z,16.20
2018-08-17T23:40:26.720Z,16.20
2018-08-17T23:42:55.825Z,16.10
2018-08-17T23:45:25.049Z,16.20
2018-08-17T23:47:54.181Z,16.10
2018-08-17T23:50:23.333Z,16.10
2018-08-17T23:52:52.481Z,16.10
2018-08-17T23:55:21.619Z,16.10
2018-08-17T23:57:50.775Z,16.10
